Glenville, New York
Current Conditions -  °F | °C
As of 8:15 AM on Thursday 30 Oct 2014 (Local Time) from KNY0 Reporting Station
Broken Clouds Broken Clouds  
Wind Chill:   Ceiling: 2000
Heat Index:   Visibility: 10mi
Dew Point:   Wind: 7mph
Humidity: 87%   Direction: 270°W
Pressure: 29.97"   Gusts: NA
Location:  42.9294°N, 74.0527°W
Report Text: KNY0 301215Z AUTO 27006KT 10SM BKN020 05/03 A2997 RMK AO2 T00510031
Loading
Personal Weather Stations






























Interactive Weather Map
Tropical Storm Tracking
New forecast layout! Learn more

10-Day Weather Forecast

Advertisements
Track Severe Weather on mobile